KHEI

Details ICAO KHEI
Name HETTINGER MUNI
Region United States
Timezone America/Denver (UTC-7.0)
Plans Departing 0
Arriving 0
Stats Elevation 2,705 ft / 824 m (AMSL)
Location 46.015250° -102.655486°
Runways 2
Magnetic Variation 7.267° E
Sunrise 2017-12-11 14:24:14 UTC / 2017-12-11 07:24:14 Local
Sunset 2017-12-11 23:06:41 UTC / 2017-12-11 16:06:41 Local
Advertisement - Login to hide

Runways

ID Width Length Bearing (true) Bearing (mag) Surface Threshold Offset Overrun Length
12 75 ft / 23 m 4,583 ft / 1,397 m 135.04° 127.77° Asphalt 0 ft / 0 m 0 ft / 0 m
17 100 ft / 30 m 1,892 ft / 577 m 178.74° 171.47° Grass 0 ft / 0 m 0 ft / 0 m
30 75 ft / 23 m 4,583 ft / 1,397 m 315.05° 307.78° Asphalt 0 ft / 0 m 0 ft / 0 m
35 100 ft / 30 m 1,892 ft / 577 m 358.74° 351.47° Grass 0 ft / 0 m 0 ft / 0 m

Map

Weather


0- 5 10 15 20 25 30 35+ Temperature / ° C

Clouds and Precipitation
Forecast for 2017-12-11 18:00 UTC. Updated 3 minutes ago

Ground ~20,000 ft ~40,000 ft Winds

METAR

KHEI 111253Z AUTO 32029G41KT 10SM OVC023 03/M03 A3013 RMK AO2 PK WND 33041/1250 SLP221 T00281028

TAF

Not found

Frequencies

Recorded 119.92 MHz ASOS
Unicom 122.80 MHz CTAF/UNICOM
Warning: Do not use this data for real-world aviation or navigation. No guarantee of current accuracy is given.